sensor_id;sensor_type;location;lat;lon;timestamp;P1;durP1;ratioP1;P2;durP2;ratioP2
46875;SDS011;32866;50.160;14.768;2023-04-08T00:01:27;31.45;;;18.90;;
46875;SDS011;32866;50.160;14.768;2023-04-08T00:03:52;35.85;;;19.77;;
46875;SDS011;32866;50.160;14.768;2023-04-08T00:06:18;38.20;;;21.02;;
46875;SDS011;32866;50.160;14.768;2023-04-08T00:08:43;32.55;;;21.25;;
46875;SDS011;32866;50.160;14.768;2023-04-08T00:11:08;34.35;;;20.92;;
46875;SDS011;32866;50.160;14.768;2023-04-08T00:13:34;31.17;;;18.80;;
46875;SDS011;32866;50.160;14.768;2023-04-08T00:15:59;28.42;;;18.02;;
46875;SDS011;32866;50.160;14.768;2023-04-08T00:18:25;30.77;;;19.23;;
46875;SDS011;32866;50.160;14.768;2023-04-08T00:20:51;27.38;;;17.73;;
46875;SDS011;32866;50.160;14.768;2023-04-08T00:23:16;29.63;;;18.27;;
46875;SDS011;32866;50.160;14.768;2023-04-08T00:25:42;33.28;;;18.20;;
46875;SDS011;32866;50.160;14.768;2023-04-08T00:28:07;34.10;;;17.80;;
46875;SDS011;32866;50.160;14.768;2023-04-08T00:30:33;31.27;;;18.38;;
46875;SDS011;32866;50.160;14.768;2023-04-08T00:32:58;31.73;;;18.52;;
46875;SDS011;32866;50.160;14.768;2023-04-08T00:35:24;31.63;;;19.25;;
46875;SDS011;32866;50.160;14.768;2023-04-08T00:37:49;34.97;;;19.90;;
46875;SDS011;32866;50.160;14.768;2023-04-08T00:40:15;27.17;;;17.45;;
46875;SDS011;32866;50.160;14.768;2023-04-08T00:42:40;30.52;;;18.25;;
46875;SDS011;32866;50.160;14.768;2023-04-08T00:45:06;28.95;;;17.77;;
46875;SDS011;32866;50.160;14.768;2023-04-08T00:47:32;31.17;;;18.70;;
46875;SDS011;32866;50.160;14.768;2023-04-08T00:49:57;28.63;;;17.05;;
46875;SDS011;32866;50.160;14.768;2023-04-08T00:52:23;27.33;;;15.80;;
46875;SDS011;32866;50.160;14.768;2023-04-08T00:54:48;26.98;;;16.95;;
46875;SDS011;32866;50.160;14.768;2023-04-08T00:57:13;27.55;;;17.10;;
46875;SDS011;32866;50.160;14.768;2023-04-08T00:59:40;29.25;;;16.98;;
46875;SDS011;32866;50.160;14.768;2023-04-08T01:02:11;28.60;;;16.20;;
46875;SDS011;32866;50.160;14.768;2023-04-08T01:10:19;24.63;;;15.68;;
46875;SDS011;32866;50.160;14.768;2023-04-08T01:12:53;23.73;;;15.97;;
46875;SDS011;32866;50.160;14.768;2023-04-08T01:15:21;27.37;;;15.60;;
46875;SDS011;32866;50.160;14.768;2023-04-08T01:17:49;27.47;;;17.00;;
46875;SDS011;32866;50.160;14.768;2023-04-08T01:20:18;27.87;;;17.73;;
46875;SDS011;32866;50.160;14.768;2023-04-08T01:25:43;24.27;;;15.57;;
46875;SDS011;32866;50.160;14.768;2023-04-08T01:28:10;25.43;;;17.23;;
46875;SDS011;32866;50.160;14.768;2023-04-08T01:30:37;29.73;;;18.80;;
46875;SDS011;32866;50.160;14.768;2023-04-08T01:33:04;31.10;;;17.43;;
46875;SDS011;32866;50.160;14.768;2023-04-08T01:37:56;25.90;;;15.73;;
46875;SDS011;32866;50.160;14.768;2023-04-08T01:40:22;29.73;;;17.42;;
46875;SDS011;32866;50.160;14.768;2023-04-08T01:42:48;27.17;;;16.92;;
46875;SDS011;32866;50.160;14.768;2023-04-08T01:45:16;28.77;;;17.73;;
46875;SDS011;32866;50.160;14.768;2023-04-08T01:47:43;28.27;;;16.63;;
46875;SDS011;32866;50.160;14.768;2023-04-08T01:50:11;26.83;;;16.57;;
46875;SDS011;32866;50.160;14.768;2023-04-08T01:52:37;24.40;;;15.77;;
46875;SDS011;32866;50.160;14.768;2023-04-08T01:55:05;26.73;;;15.83;;
46875;SDS011;32866;50.160;14.768;2023-04-08T01:57:32;28.08;;;16.90;;
46875;SDS011;32866;50.160;14.768;2023-04-08T02:00:02;27.37;;;16.87;;
46875;SDS011;32866;50.160;14.768;2023-04-08T02:02:32;25.70;;;16.03;;
46875;SDS011;32866;50.160;14.768;2023-04-08T02:05:00;25.10;;;16.07;;
46875;SDS011;32866;50.160;14.768;2023-04-08T02:07:26;27.98;;;17.67;;
46875;SDS011;32866;50.160;14.768;2023-04-08T02:09:51;25.75;;;15.63;;
46875;SDS011;32866;50.160;14.768;2023-04-08T02:12:17;24.55;;;14.82;;
46875;SDS011;32866;50.160;14.768;2023-04-08T02:14:43;26.48;;;15.93;;
46875;SDS011;32866;50.160;14.768;2023-04-08T02:17:09;28.17;;;15.98;;
46875;SDS011;32866;50.160;14.768;2023-04-08T02:19:43;30.00;;;17.13;;
46875;SDS011;32866;50.160;14.768;2023-04-08T02:22:23;29.13;;;17.47;;
46875;SDS011;32866;50.160;14.768;2023-04-08T02:24:55;25.17;;;15.63;;
46875;SDS011;32866;50.160;14.768;2023-04-08T02:27:23;25.63;;;15.77;;
46875;SDS011;32866;50.160;14.768;2023-04-08T02:29:51;26.80;;;15.70;;
46875;SDS011;32866;50.160;14.768;2023-04-08T02:32:20;25.23;;;15.53;;
46875;SDS011;32866;50.160;14.768;2023-04-08T02:34:47;23.93;;;16.00;;
46875;SDS011;32866;50.160;14.768;2023-04-08T02:37:14;21.53;;;14.40;;
46875;SDS011;32866;50.160;14.768;2023-04-08T02:39:39;28.00;;;16.15;;
46875;SDS011;32866;50.160;14.768;2023-04-08T02:42:05;22.95;;;15.07;;
46875;SDS011;32866;50.160;14.768;2023-04-08T02:44:30;21.73;;;14.07;;
46875;SDS011;32866;50.160;14.768;2023-04-08T02:46:55;19.08;;;15.05;;
46875;SDS011;32866;50.160;14.768;2023-04-08T02:49:21;23.70;;;15.27;;
46875;SDS011;32866;50.160;14.768;2023-04-08T02:51:46;22.63;;;14.65;;
46875;SDS011;32866;50.160;14.768;2023-04-08T02:54:12;20.35;;;14.20;;
46875;SDS011;32866;50.160;14.768;2023-04-08T02:56:37;26.65;;;13.80;;
46875;SDS011;32866;50.160;14.768;2023-04-08T02:59:02;22.38;;;14.00;;
46875;SDS011;32866;50.160;14.768;2023-04-08T03:01:29;19.88;;;13.18;;
46875;SDS011;32866;50.160;14.768;2023-04-08T03:03:55;18.37;;;11.77;;
46875;SDS011;32866;50.160;14.768;2023-04-08T03:06:20;18.27;;;11.70;;
46875;SDS011;32866;50.160;14.768;2023-04-08T03:08:45;23.83;;;13.07;;
46875;SDS011;32866;50.160;14.768;2023-04-08T03:11:11;18.30;;;10.68;;
46875;SDS011;32866;50.160;14.768;2023-04-08T03:13:36;16.85;;;11.00;;
46875;SDS011;32866;50.160;14.768;2023-04-08T03:16:02;16.35;;;10.80;;
46875;SDS011;32866;50.160;14.768;2023-04-08T03:18:27;20.35;;;12.48;;
46875;SDS011;32866;50.160;14.768;2023-04-08T03:20:52;16.65;;;10.98;;
46875;SDS011;32866;50.160;14.768;2023-04-08T03:23:18;19.48;;;11.15;;
46875;SDS011;32866;50.160;14.768;2023-04-08T03:25:43;17.08;;;11.02;;
46875;SDS011;32866;50.160;14.768;2023-04-08T03:28:08;16.65;;;10.60;;
46875;SDS011;32866;50.160;14.768;2023-04-08T03:30:34;16.90;;;10.30;;
46875;SDS011;32866;50.160;14.768;2023-04-08T03:32:59;18.27;;;11.13;;
46875;SDS011;32866;50.160;14.768;2023-04-08T03:35:27;20.10;;;11.03;;
46875;SDS011;32866;50.160;14.768;2023-04-08T03:37:52;17.35;;;10.95;;
46875;SDS011;32866;50.160;14.768;2023-04-08T03:40:19;16.23;;;10.50;;
46875;SDS011;32866;50.160;14.768;2023-04-08T03:42:45;17.63;;;12.27;;
46875;SDS011;32866;50.160;14.768;2023-04-08T03:45:10;16.13;;;11.43;;
46875;SDS011;32866;50.160;14.768;2023-04-08T03:47:35;17.38;;;9.73;;
46875;SDS011;32866;50.160;14.768;2023-04-08T03:50:01;14.02;;;9.80;;
46875;SDS011;32866;50.160;14.768;2023-04-08T03:52:27;13.32;;;9.38;;
46875;SDS011;32866;50.160;14.768;2023-04-08T03:54:52;14.70;;;8.93;;
46875;SDS011;32866;50.160;14.768;2023-04-08T03:57:18;13.93;;;9.70;;
46875;SDS011;32866;50.160;14.768;2023-04-08T03:59:43;14.07;;;9.60;;
46875;SDS011;32866;50.160;14.768;2023-04-08T04:02:08;12.55;;;9.82;;
46875;SDS011;32866;50.160;14.768;2023-04-08T04:04:34;15.00;;;10.07;;
46875;SDS011;32866;50.160;14.768;2023-04-08T04:07:00;13.73;;;10.17;;
46875;SDS011;32866;50.160;14.768;2023-04-08T04:09:26;15.20;;;9.57;;
46875;SDS011;32866;50.160;14.768;2023-04-08T04:11:51;17.42;;;10.70;;
46875;SDS011;32866;50.160;14.768;2023-04-08T04:14:17;20.65;;;11.60;;
46875;SDS011;32866;50.160;14.768;2023-04-08T04:16:42;23.60;;;11.52;;
46875;SDS011;32866;50.160;14.768;2023-04-08T04:19:07;14.55;;;10.13;;
46875;SDS011;32866;50.160;14.768;2023-04-08T04:21:33;17.10;;;11.07;;
46875;SDS011;32866;50.160;14.768;2023-04-08T04:23:58;17.70;;;11.00;;
46875;SDS011;32866;50.160;14.768;2023-04-08T04:26:23;17.85;;;10.70;;
46875;SDS011;32866;50.160;14.768;2023-04-08T04:28:49;14.65;;;10.57;;
46875;SDS011;32866;50.160;14.768;2023-04-08T04:31:21;18.45;;;10.77;;
46875;SDS011;32866;50.160;14.768;2023-04-08T04:33:50;16.50;;;11.03;;
46875;SDS011;32866;50.160;14.768;2023-04-08T04:36:16;13.02;;;10.18;;
46875;SDS011;32866;50.160;14.768;2023-04-08T04:38:41;18.23;;;11.70;;
46875;SDS011;32866;50.160;14.768;2023-04-08T04:41:07;16.05;;;10.70;;
46875;SDS011;32866;50.160;14.768;2023-04-08T04:43:33;16.60;;;9.27;;
46875;SDS011;32866;50.160;14.768;2023-04-08T04:45:58;14.13;;;9.65;;
46875;SDS011;32866;50.160;14.768;2023-04-08T04:48:24;16.45;;;10.93;;
46875;SDS011;32866;50.160;14.768;2023-04-08T04:50:54;13.45;;;10.70;;
46875;SDS011;32866;50.160;14.768;2023-04-08T04:53:20;17.00;;;11.27;;
46875;SDS011;32866;50.160;14.768;2023-04-08T04:55:46;17.00;;;10.15;;
46875;SDS011;32866;50.160;14.768;2023-04-08T04:58:11;13.05;;;10.30;;
46875;SDS011;32866;50.160;14.768;2023-04-08T05:00:37;17.13;;;11.57;;
46875;SDS011;32866;50.160;14.768;2023-04-08T05:03:02;14.57;;;9.95;;
46875;SDS011;32866;50.160;14.768;2023-04-08T05:05:27;18.20;;;12.65;;
46875;SDS011;32866;50.160;14.768;2023-04-08T05:07:53;16.92;;;11.90;;
46875;SDS011;32866;50.160;14.768;2023-04-08T05:10:18;14.20;;;10.27;;
46875;SDS011;32866;50.160;14.768;2023-04-08T05:12:43;17.25;;;11.43;;
46875;SDS011;32866;50.160;14.768;2023-04-08T05:15:09;15.55;;;10.57;;
46875;SDS011;32866;50.160;14.768;2023-04-08T05:17:35;16.52;;;10.25;;
46875;SDS011;32866;50.160;14.768;2023-04-08T05:20:00;12.30;;;8.70;;
46875;SDS011;32866;50.160;14.768;2023-04-08T05:22:26;13.23;;;9.23;;
46875;SDS011;32866;50.160;14.768;2023-04-08T05:24:51;15.25;;;10.95;;
46875;SDS011;32866;50.160;14.768;2023-04-08T05:27:16;15.77;;;11.10;;
46875;SDS011;32866;50.160;14.768;2023-04-08T05:29:42;15.02;;;10.55;;
46875;SDS011;32866;50.160;14.768;2023-04-08T05:32:07;15.82;;;10.13;;
46875;SDS011;32866;50.160;14.768;2023-04-08T05:34:33;15.02;;;10.07;;
46875;SDS011;32866;50.160;14.768;2023-04-08T05:36:58;13.00;;;9.20;;
46875;SDS011;32866;50.160;14.768;2023-04-08T05:39:24;12.40;;;8.77;;
46875;SDS011;32866;50.160;14.768;2023-04-08T05:41:49;12.15;;;9.40;;
46875;SDS011;32866;50.160;14.768;2023-04-08T05:44:15;14.30;;;10.32;;
46875;SDS011;32866;50.160;14.768;2023-04-08T05:46:40;13.20;;;9.55;;
46875;SDS011;32866;50.160;14.768;2023-04-08T05:49:05;13.20;;;9.05;;
46875;SDS011;32866;50.160;14.768;2023-04-08T05:51:31;15.50;;;9.68;;
46875;SDS011;32866;50.160;14.768;2023-04-08T05:53:56;15.55;;;10.02;;
46875;SDS011;32866;50.160;14.768;2023-04-08T05:56:21;12.95;;;9.60;;
46875;SDS011;32866;50.160;14.768;2023-04-08T05:58:47;15.50;;;10.57;;
46875;SDS011;32866;50.160;14.768;2023-04-08T06:01:12;12.15;;;9.73;;
46875;SDS011;32866;50.160;14.768;2023-04-08T06:03:38;12.95;;;9.65;;
46875;SDS011;32866;50.160;14.768;2023-04-08T06:06:03;15.23;;;10.55;;
46875;SDS011;32866;50.160;14.768;2023-04-08T06:08:33;14.43;;;11.37;;
46875;SDS011;32866;50.160;14.768;2023-04-08T06:10:59;15.65;;;10.32;;
46875;SDS011;32866;50.160;14.768;2023-04-08T06:13:24;13.90;;;9.95;;
46875;SDS011;32866;50.160;14.768;2023-04-08T06:15:50;13.35;;;9.10;;
46875;SDS011;32866;50.160;14.768;2023-04-08T06:18:34;12.35;;;8.77;;
46875;SDS011;32866;50.160;14.768;2023-04-08T06:20:59;15.47;;;9.70;;
46875;SDS011;32866;50.160;14.768;2023-04-08T06:23:24;16.00;;;9.82;;
46875;SDS011;32866;50.160;14.768;2023-04-08T06:25:50;14.98;;;9.75;;
46875;SDS011;32866;50.160;14.768;2023-04-08T06:28:17;14.70;;;9.67;;
46875;SDS011;32866;50.160;14.768;2023-04-08T06:30:43;12.63;;;9.25;;
46875;SDS011;32866;50.160;14.768;2023-04-08T06:33:08;11.43;;;8.23;;
46875;SDS011;32866;50.160;14.768;2023-04-08T06:35:33;13.35;;;9.18;;
46875;SDS011;32866;50.160;14.768;2023-04-08T06:37:59;14.65;;;8.10;;
46875;SDS011;32866;50.160;14.768;2023-04-08T06:40:25;10.23;;;7.82;;
46875;SDS011;32866;50.160;14.768;2023-04-08T06:42:50;10.45;;;7.53;;
46875;SDS011;32866;50.160;14.768;2023-04-08T06:45:16;11.77;;;8.95;;
46875;SDS011;32866;50.160;14.768;2023-04-08T06:47:41;11.82;;;9.23;;
46875;SDS011;32866;50.160;14.768;2023-04-08T06:50:06;11.50;;;8.07;;
46875;SDS011;32866;50.160;14.768;2023-04-08T06:52:32;12.52;;;9.27;;
46875;SDS011;32866;50.160;14.768;2023-04-08T06:54:58;12.73;;;9.18;;
46875;SDS011;32866;50.160;14.768;2023-04-08T06:57:23;11.43;;;9.27;;
46875;SDS011;32866;50.160;14.768;2023-04-08T06:59:48;14.07;;;9.35;;
46875;SDS011;32866;50.160;14.768;2023-04-08T07:02:14;11.60;;;9.43;;
46875;SDS011;32866;50.160;14.768;2023-04-08T07:04:39;10.48;;;9.38;;
46875;SDS011;32866;50.160;14.768;2023-04-08T07:07:05;13.68;;;9.27;;
46875;SDS011;32866;50.160;14.768;2023-04-08T07:09:31;11.05;;;8.45;;
46875;SDS011;32866;50.160;14.768;2023-04-08T07:11:56;12.43;;;9.20;;
46875;SDS011;32866;50.160;14.768;2023-04-08T07:14:22;13.50;;;9.02;;
46875;SDS011;32866;50.160;14.768;2023-04-08T07:16:47;14.73;;;10.60;;
46875;SDS011;32866;50.160;14.768;2023-04-08T07:19:13;13.35;;;10.57;;
46875;SDS011;32866;50.160;14.768;2023-04-08T07:21:38;14.52;;;10.63;;
46875;SDS011;32866;50.160;14.768;2023-04-08T07:24:03;13.73;;;10.40;;
46875;SDS011;32866;50.160;14.768;2023-04-08T07:26:29;14.27;;;9.27;;
46875;SDS011;32866;50.160;14.768;2023-04-08T07:28:54;12.45;;;9.93;;
46875;SDS011;32866;50.160;14.768;2023-04-08T07:31:20;14.38;;;10.85;;
46875;SDS011;32866;50.160;14.768;2023-04-08T07:33:45;12.55;;;10.25;;
46875;SDS011;32866;50.160;14.768;2023-04-08T07:36:11;14.52;;;9.98;;
46875;SDS011;32866;50.160;14.768;2023-04-08T07:38:38;14.63;;;10.37;;
46875;SDS011;32866;50.160;14.768;2023-04-08T07:41:03;14.70;;;10.90;;
46875;SDS011;32866;50.160;14.768;2023-04-08T07:43:31;17.60;;;10.87;;
46875;SDS011;32866;50.160;14.768;2023-04-08T07:46:01;17.93;;;12.37;;
46875;SDS011;32866;50.160;14.768;2023-04-08T07:48:27;15.30;;;11.30;;
46875;SDS011;32866;50.160;14.768;2023-04-08T07:50:53;15.50;;;12.27;;
46875;SDS011;32866;50.160;14.768;2023-04-08T07:53:19;16.05;;;11.30;;
46875;SDS011;32866;50.160;14.768;2023-04-08T07:55:44;16.52;;;12.00;;
46875;SDS011;32866;50.160;14.768;2023-04-08T07:58:10;17.80;;;11.35;;
46875;SDS011;32866;50.160;14.768;2023-04-08T08:00:36;19.08;;;13.00;;
46875;SDS011;32866;50.160;14.768;2023-04-08T08:03:01;16.77;;;12.70;;
46875;SDS011;32866;50.160;14.768;2023-04-08T08:05:26;16.98;;;11.93;;
46875;SDS011;32866;50.160;14.768;2023-04-08T08:07:52;15.57;;;12.10;;
46875;SDS011;32866;50.160;14.768;2023-04-08T08:10:17;18.58;;;12.80;;
46875;SDS011;32866;50.160;14.768;2023-04-08T08:12:43;18.30;;;12.27;;
46875;SDS011;32866;50.160;14.768;2023-04-08T08:15:08;17.30;;;11.73;;
46875;SDS011;32866;50.160;14.768;2023-04-08T08:17:34;17.77;;;11.30;;
46875;SDS011;32866;50.160;14.768;2023-04-08T08:19:59;18.52;;;13.50;;
46875;SDS011;32866;50.160;14.768;2023-04-08T08:22:25;16.45;;;11.43;;
46875;SDS011;32866;50.160;14.768;2023-04-08T08:24:55;17.85;;;12.27;;
46875;SDS011;32866;50.160;14.768;2023-04-08T08:27:21;16.00;;;12.30;;
46875;SDS011;32866;50.160;14.768;2023-04-08T08:29:47;15.95;;;12.20;;
46875;SDS011;32866;50.160;14.768;2023-04-08T08:32:12;16.33;;;10.95;;
46875;SDS011;32866;50.160;14.768;2023-04-08T08:34:38;14.60;;;10.95;;
46875;SDS011;32866;50.160;14.768;2023-04-08T08:37:04;17.80;;;10.97;;
46875;SDS011;32866;50.160;14.768;2023-04-08T08:39:30;14.23;;;10.00;;
46875;SDS011;32866;50.160;14.768;2023-04-08T08:41:55;14.40;;;10.20;;
46875;SDS011;32866;50.160;14.768;2023-04-08T08:44:21;15.35;;;10.93;;
46875;SDS011;32866;50.160;14.768;2023-04-08T08:46:46;17.50;;;11.23;;
46875;SDS011;32866;50.160;14.768;2023-04-08T08:49:12;14.00;;;10.45;;
46875;SDS011;32866;50.160;14.768;2023-04-08T08:51:39;14.80;;;10.23;;
46875;SDS011;32866;50.160;14.768;2023-04-08T08:54:04;14.67;;;10.00;;
46875;SDS011;32866;50.160;14.768;2023-04-08T08:56:31;12.48;;;10.35;;
46875;SDS011;32866;50.160;14.768;2023-04-08T08:58:58;13.33;;;9.53;;
46875;SDS011;32866;50.160;14.768;2023-04-08T09:01:36;13.48;;;10.27;;
46875;SDS011;32866;50.160;14.768;2023-04-08T09:04:07;13.70;;;9.47;;
46875;SDS011;32866;50.160;14.768;2023-04-08T09:06:32;15.20;;;10.67;;
46875;SDS011;32866;50.160;14.768;2023-04-08T09:08:57;15.43;;;10.02;;
46875;SDS011;32866;50.160;14.768;2023-04-08T09:11:23;15.48;;;10.98;;
46875;SDS011;32866;50.160;14.768;2023-04-08T09:13:48;13.73;;;9.73;;
46875;SDS011;32866;50.160;14.768;2023-04-08T09:16:14;14.10;;;9.40;;
46875;SDS011;32866;50.160;14.768;2023-04-08T09:18:42;14.57;;;11.10;;
46875;SDS011;32866;50.160;14.768;2023-04-08T09:21:08;13.03;;;10.27;;
46875;SDS011;32866;50.160;14.768;2023-04-08T09:23:49;14.83;;;10.90;;
46875;SDS011;32866;50.160;14.768;2023-04-08T09:26:19;13.77;;;10.67;;
46875;SDS011;32866;50.160;14.768;2023-04-08T09:29:03;14.30;;;10.20;;
46875;SDS011;32866;50.160;14.768;2023-04-08T09:31:31;11.23;;;9.13;;
46875;SDS011;32866;50.160;14.768;2023-04-08T09:34:00;15.30;;;10.00;;
46875;SDS011;32866;50.160;14.768;2023-04-08T09:36:34;16.30;;;10.20;;
46875;SDS011;32866;50.160;14.768;2023-04-08T09:38:59;15.45;;;10.80;;
46875;SDS011;32866;50.160;14.768;2023-04-08T09:41:25;15.60;;;10.40;;
46875;SDS011;32866;50.160;14.768;2023-04-08T09:43:53;17.10;;;10.20;;
46875;SDS011;32866;50.160;14.768;2023-04-08T09:49:12;17.23;;;9.85;;
46875;SDS011;32866;50.160;14.768;2023-04-08T09:51:51;15.25;;;10.85;;
46875;SDS011;32866;50.160;14.768;2023-04-08T09:54:24;12.87;;;10.20;;
46875;SDS011;32866;50.160;14.768;2023-04-08T09:57:01;13.73;;;9.70;;
46875;SDS011;32866;50.160;14.768;2023-04-08T09:59:33;13.63;;;9.97;;
46875;SDS011;32866;50.160;14.768;2023-04-08T10:02:04;13.57;;;9.83;;
46875;SDS011;32866;50.160;14.768;2023-04-08T10:04:34;17.33;;;10.53;;
46875;SDS011;32866;50.160;14.768;2023-04-08T10:07:03;15.30;;;10.93;;
46875;SDS011;32866;50.160;14.768;2023-04-08T10:09:30;14.90;;;11.20;;
46875;SDS011;32866;50.160;14.768;2023-04-08T10:11:56;15.70;;;11.48;;
46875;SDS011;32866;50.160;14.768;2023-04-08T10:14:22;17.70;;;11.00;;
46875;SDS011;32866;50.160;14.768;2023-04-08T10:16:47;16.58;;;10.23;;
46875;SDS011;32866;50.160;14.768;2023-04-08T10:33:04;16.30;;;10.47;;
46875;SDS011;32866;50.160;14.768;2023-04-08T10:35:35;16.23;;;9.10;;
46875;SDS011;32866;50.160;14.768;2023-04-08T10:40:26;10.60;;;6.93;;
46875;SDS011;32866;50.160;14.768;2023-04-08T10:42:55;12.27;;;7.32;;
46875;SDS011;32866;50.160;14.768;2023-04-08T10:45:21;10.53;;;7.50;;
46875;SDS011;32866;50.160;14.768;2023-04-08T10:47:47;8.60;;;6.40;;
46875;SDS011;32866;50.160;14.768;2023-04-08T10:50:12;8.93;;;6.32;;
46875;SDS011;32866;50.160;14.768;2023-04-08T10:52:52;9.77;;;6.37;;
46875;SDS011;32866;50.160;14.768;2023-04-08T10:55:25;9.33;;;6.37;;
46875;SDS011;32866;50.160;14.768;2023-04-08T10:57:51;10.03;;;7.70;;
46875;SDS011;32866;50.160;14.768;2023-04-08T11:02:43;7.37;;;5.83;;
46875;SDS011;32866;50.160;14.768;2023-04-08T11:05:09;6.80;;;5.40;;
46875;SDS011;32866;50.160;14.768;2023-04-08T11:07:41;6.53;;;4.43;;
46875;SDS011;32866;50.160;14.768;2023-04-08T11:10:09;6.33;;;4.23;;
46875;SDS011;32866;50.160;14.768;2023-04-08T11:12:34;6.73;;;4.57;;
46875;SDS011;32866;50.160;14.768;2023-04-08T11:15:02;5.50;;;4.17;;
46875;SDS011;32866;50.160;14.768;2023-04-08T11:17:27;5.83;;;4.23;;
46875;SDS011;32866;50.160;14.768;2023-04-08T11:19:54;5.00;;;3.87;;
46875;SDS011;32866;50.160;14.768;2023-04-08T11:22:19;4.72;;;3.58;;
46875;SDS011;32866;50.160;14.768;2023-04-08T11:24:45;5.15;;;4.20;;
46875;SDS011;32866;50.160;14.768;2023-04-08T11:27:11;7.38;;;4.88;;
46875;SDS011;32866;50.160;14.768;2023-04-08T11:29:37;8.40;;;5.40;;
46875;SDS011;32866;50.160;14.768;2023-04-08T11:32:03;8.80;;;5.97;;
46875;SDS011;32866;50.160;14.768;2023-04-08T11:34:31;9.23;;;6.20;;
46875;SDS011;32866;50.160;14.768;2023-04-08T11:36:56;9.02;;;6.43;;
46875;SDS011;32866;50.160;14.768;2023-04-08T11:41:48;9.10;;;6.57;;
46875;SDS011;32866;50.160;14.768;2023-04-08T11:44:14;9.32;;;6.15;;
46875;SDS011;32866;50.160;14.768;2023-04-08T11:46:40;12.60;;;7.47;;
46875;SDS011;32866;50.160;14.768;2023-04-08T11:49:06;15.30;;;9.57;;
46875;SDS011;32866;50.160;14.768;2023-04-08T11:54:26;16.50;;;11.23;;
46875;SDS011;32866;50.160;14.768;2023-04-08T11:56:56;19.40;;;12.73;;
46875;SDS011;32866;50.160;14.768;2023-04-08T11:59:22;21.88;;;14.73;;
46875;SDS011;32866;50.160;14.768;2023-04-08T12:01:50;23.57;;;13.63;;
46875;SDS011;32866;50.160;14.768;2023-04-08T12:04:15;24.90;;;14.63;;
46875;SDS011;32866;50.160;14.768;2023-04-08T12:06:41;20.20;;;12.90;;
46875;SDS011;32866;50.160;14.768;2023-04-08T12:09:07;23.77;;;14.03;;
46875;SDS011;32866;50.160;14.768;2023-04-08T15:13:23;11.77;;;8.17;;
46875;SDS011;32866;50.160;14.768;2023-04-08T15:15:48;13.50;;;8.32;;
46875;SDS011;32866;50.160;14.768;2023-04-08T15:18:14;10.25;;;7.28;;
46875;SDS011;32866;50.160;14.768;2023-04-08T15:20:39;11.00;;;7.43;;
46875;SDS011;32866;50.160;14.768;2023-04-08T15:23:05;10.20;;;8.07;;
46875;SDS011;32866;50.160;14.768;2023-04-08T15:25:31;11.82;;;8.20;;
46875;SDS011;32866;50.160;14.768;2023-04-08T15:27:57;9.45;;;6.75;;
46875;SDS011;32866;50.160;14.768;2023-04-08T15:30:22;9.18;;;6.72;;
46875;SDS011;32866;50.160;14.768;2023-04-08T15:32:49;9.83;;;7.23;;
46875;SDS011;32866;50.160;14.768;2023-04-08T15:35:16;13.10;;;8.20;;
46875;SDS011;32866;50.160;14.768;2023-04-08T15:37:42;10.35;;;6.95;;
46875;SDS011;32866;50.160;14.768;2023-04-08T15:40:07;9.95;;;7.68;;
46875;SDS011;32866;50.160;14.768;2023-04-08T15:44:59;9.23;;;6.70;;
46875;SDS011;32866;50.160;14.768;2023-04-08T15:47:24;7.95;;;6.22;;
46875;SDS011;32866;50.160;14.768;2023-04-08T15:49:52;8.82;;;6.93;;
46875;SDS011;32866;50.160;14.768;2023-04-08T15:52:19;9.25;;;7.10;;
46875;SDS011;32866;50.160;14.768;2023-04-08T15:54:45;10.35;;;7.35;;
46875;SDS011;32866;50.160;14.768;2023-04-08T15:57:11;9.18;;;7.00;;
46875;SDS011;32866;50.160;14.768;2023-04-08T15:59:36;11.32;;;7.75;;
46875;SDS011;32866;50.160;14.768;2023-04-08T16:02:02;10.80;;;7.82;;
46875;SDS011;32866;50.160;14.768;2023-04-08T16:04:27;13.27;;;8.93;;
46875;SDS011;32866;50.160;14.768;2023-04-08T16:06:52;15.15;;;8.05;;
46875;SDS011;32866;50.160;14.768;2023-04-08T16:09:18;10.40;;;7.70;;
46875;SDS011;32866;50.160;14.768;2023-04-08T16:11:49;10.10;;;7.30;;
46875;SDS011;32866;50.160;14.768;2023-04-08T16:14:14;10.20;;;7.70;;
46875;SDS011;32866;50.160;14.768;2023-04-08T16:16:40;10.90;;;8.25;;
46875;SDS011;32866;50.160;14.768;2023-04-08T16:19:05;12.48;;;8.65;;
46875;SDS011;32866;50.160;14.768;2023-04-08T16:23:57;11.77;;;8.27;;
46875;SDS011;32866;50.160;14.768;2023-04-08T16:26:23;11.13;;;8.32;;
46875;SDS011;32866;50.160;14.768;2023-04-08T16:28:48;12.07;;;8.50;;
46875;SDS011;32866;50.160;14.768;2023-04-08T16:31:15;11.17;;;8.00;;
46875;SDS011;32866;50.160;14.768;2023-04-08T16:33:40;12.82;;;8.55;;
46875;SDS011;32866;50.160;14.768;2023-04-08T16:36:06;13.52;;;9.60;;
46875;SDS011;32866;50.160;14.768;2023-04-08T16:38:31;11.82;;;8.60;;
46875;SDS011;32866;50.160;14.768;2023-04-08T16:40:57;13.18;;;9.40;;
46875;SDS011;32866;50.160;14.768;2023-04-08T16:43:23;13.35;;;9.68;;
46875;SDS011;32866;50.160;14.768;2023-04-08T16:45:49;12.38;;;9.55;;
46875;SDS011;32866;50.160;14.768;2023-04-08T16:48:14;13.90;;;10.30;;
46875;SDS011;32866;50.160;14.768;2023-04-08T16:50:40;13.35;;;10.65;;
46875;SDS011;32866;50.160;14.768;2023-04-08T16:55:32;15.13;;;10.10;;
46875;SDS011;32866;50.160;14.768;2023-04-08T16:57:58;17.17;;;10.93;;
46875;SDS011;32866;50.160;14.768;2023-04-08T17:00:30;16.17;;;10.73;;
46875;SDS011;32866;50.160;14.768;2023-04-08T17:02:56;17.77;;;12.03;;
46875;SDS011;32866;50.160;14.768;2023-04-08T17:05:22;18.40;;;13.30;;
46875;SDS011;32866;50.160;14.768;2023-04-08T17:07:50;15.17;;;11.30;;
46875;SDS011;32866;50.160;14.768;2023-04-08T17:10:16;16.00;;;11.15;;
46875;SDS011;32866;50.160;14.768;2023-04-08T17:12:42;16.13;;;11.13;;
46875;SDS011;32866;50.160;14.768;2023-04-08T17:15:08;17.98;;;11.48;;
46875;SDS011;32866;50.160;14.768;2023-04-08T17:17:34;17.03;;;12.80;;
46875;SDS011;32866;50.160;14.768;2023-04-08T17:20:00;18.20;;;11.88;;
46875;SDS011;32866;50.160;14.768;2023-04-08T17:22:25;15.35;;;11.27;;
46875;SDS011;32866;50.160;14.768;2023-04-08T17:24:51;21.50;;;13.00;;
46875;SDS011;32866;50.160;14.768;2023-04-08T17:27:16;20.88;;;14.05;;
46875;SDS011;32866;50.160;14.768;2023-04-08T17:29:42;21.15;;;13.50;;
46875;SDS011;32866;50.160;14.768;2023-04-08T17:32:07;20.35;;;13.45;;
46875;SDS011;32866;50.160;14.768;2023-04-08T17:34:33;22.92;;;13.63;;
46875;SDS011;32866;50.160;14.768;2023-04-08T17:36:58;25.35;;;14.65;;
46875;SDS011;32866;50.160;14.768;2023-04-08T17:39:23;23.80;;;14.82;;
46875;SDS011;32866;50.160;14.768;2023-04-08T17:41:49;20.30;;;13.05;;
46875;SDS011;32866;50.160;14.768;2023-04-08T17:44:14;23.35;;;13.82;;
46875;SDS011;32866;50.160;14.768;2023-04-08T17:46:39;24.08;;;13.75;;
46875;SDS011;32866;50.160;14.768;2023-04-08T17:49:05;25.63;;;15.50;;
46875;SDS011;32866;50.160;14.768;2023-04-08T17:51:31;20.40;;;13.73;;
46875;SDS011;32866;50.160;14.768;2023-04-08T17:53:56;22.80;;;15.35;;
46875;SDS011;32866;50.160;14.768;2023-04-08T17:56:24;21.57;;;14.30;;